createdAt,value
2022-10-27T00:01:11.363Z,6.32
2022-10-27T00:03:38.159Z,5.90
2022-10-27T00:06:04.801Z,5.50
2022-10-27T00:08:31.451Z,6.07
2022-10-27T00:10:58.328Z,5.13
2022-10-27T00:13:25.030Z,4.93
2022-10-27T00:15:51.657Z,4.18
2022-10-27T00:18:18.361Z,4.00
2022-10-27T00:20:44.996Z,4.20
2022-10-27T00:23:11.686Z,4.07
2022-10-27T00:25:38.375Z,3.55
2022-10-27T00:28:05.020Z,3.50
2022-10-27T00:30:31.732Z,3.55
2022-10-27T00:32:58.419Z,3.20
2022-10-27T00:35:25.069Z,3.10
2022-10-27T00:37:52.004Z,3.80
2022-10-27T00:40:18.893Z,3.58
2022-10-27T00:42:45.621Z,3.25
2022-10-27T00:45:12.437Z,3.35
2022-10-27T00:47:39.153Z,3.03
2022-10-27T00:50:05.858Z,3.42
2022-10-27T00:52:32.645Z,3.40
2022-10-27T00:54:59.285Z,2.92
2022-10-27T00:57:25.972Z,3.03
2022-10-27T00:59:52.670Z,3.78
2022-10-27T01:02:19.392Z,3.38
2022-10-27T01:04:46.050Z,3.38
2022-10-27T01:07:12.748Z,3.10
2022-10-27T01:09:39.501Z,3.13
2022-10-27T01:12:06.427Z,3.83
2022-10-27T01:14:33.123Z,3.60
2022-10-27T01:16:59.788Z,4.05
2022-10-27T01:19:26.469Z,3.33
2022-10-27T01:21:53.196Z,3.35
2022-10-27T01:24:19.889Z,3.53
2022-10-27T01:26:46.537Z,3.88
2022-10-27T01:29:13.187Z,3.60
2022-10-27T01:31:43.039Z,3.78
2022-10-27T01:34:12.601Z,3.63
2022-10-27T01:36:39.348Z,4.15
2022-10-27T01:39:06.031Z,4.05
2022-10-27T01:41:32.849Z,3.95
2022-10-27T01:43:59.511Z,4.50
2022-10-27T01:46:26.257Z,4.68
2022-10-27T01:48:52.899Z,4.95
2022-10-27T01:51:19.623Z,4.32
2022-10-27T01:53:46.379Z,5.13
2022-10-27T01:56:13.062Z,4.63
2022-10-27T01:58:39.742Z,4.30
2022-10-27T02:01:06.823Z,4.28
2022-10-27T02:03:33.642Z,4.10
2022-10-27T02:06:00.369Z,3.83
2022-10-27T02:08:27.056Z,3.70
2022-10-27T02:10:53.722Z,3.90
2022-10-27T02:13:20.407Z,3.80
2022-10-27T02:15:47.062Z,3.22
2022-10-27T02:18:13.724Z,3.55
2022-10-27T02:20:40.398Z,3.35
2022-10-27T02:23:09.988Z,3.53
2022-10-27T02:25:36.664Z,3.38
2022-10-27T02:28:03.357Z,3.67
2022-10-27T02:30:29.988Z,3.88
2022-10-27T02:32:56.689Z,3.47
2022-10-27T02:35:23.379Z,3.25
2022-10-27T02:37:50.028Z,3.67
2022-10-27T02:40:16.774Z,3.38
2022-10-27T02:42:43.506Z,3.13
2022-10-27T02:45:10.349Z,3.47
2022-10-27T02:47:37.059Z,3.78
2022-10-27T02:50:03.751Z,3.63
2022-10-27T02:52:30.452Z,4.00
2022-10-27T02:54:57.112Z,4.05
2022-10-27T02:57:23.771Z,3.92
2022-10-27T02:59:53.544Z,3.80
2022-10-27T03:02:23.262Z,4.30
2022-10-27T03:04:50.499Z,4.10
2022-10-27T03:07:17.253Z,4.47
2022-10-27T03:09:43.907Z,4.68
2022-10-27T03:12:10.601Z,4.20
2022-10-27T03:14:37.329Z,4.80
2022-10-27T03:17:03.975Z,4.63
2022-10-27T03:19:30.675Z,5.15
2022-10-27T03:21:57.324Z,5.15
2022-10-27T03:24:23.976Z,4.72
2022-10-27T03:26:50.688Z,5.07
2022-10-27T03:29:17.412Z,5.32
2022-10-27T03:31:44.095Z,5.57
2022-10-27T03:34:10.817Z,4.65
2022-10-27T03:36:37.482Z,4.85
2022-10-27T03:39:04.252Z,4.03
2022-10-27T03:41:30.956Z,3.53
2022-10-27T03:43:57.617Z,4.10
2022-10-27T03:46:24.300Z,3.92
2022-10-27T03:48:50.993Z,3.50
2022-10-27T03:51:17.636Z,3.22
2022-10-27T03:53:44.321Z,3.33
2022-10-27T03:56:11.041Z,2.85
2022-10-27T03:58:37.752Z,3.22
2022-10-27T04:01:04.479Z,2.88
2022-10-27T04:03:31.190Z,3.03
2022-10-27T04:05:57.938Z,3.20
2022-10-27T04:08:24.638Z,2.92
2022-10-27T04:10:51.490Z,3.08
2022-10-27T04:13:18.184Z,3.10
2022-10-27T04:15:44.845Z,3.00
2022-10-27T04:18:11.543Z,2.92
2022-10-27T04:20:38.236Z,2.60
2022-10-27T04:23:04.919Z,2.90
2022-10-27T04:25:31.627Z,2.85
2022-10-27T04:27:58.306Z,3.15
2022-10-27T04:30:24.980Z,3.00
2022-10-27T04:32:51.659Z,2.95
2022-10-27T04:35:18.374Z,3.47
2022-10-27T04:37:44.996Z,3.30
2022-10-27T04:40:11.664Z,3.75
2022-10-27T04:42:38.488Z,3.83
2022-10-27T04:45:05.201Z,3.63
2022-10-27T04:47:31.848Z,4.15
2022-10-27T04:49:58.504Z,4.10
2022-10-27T04:52:25.191Z,3.63
2022-10-27T04:54:51.992Z,3.85
2022-10-27T04:57:18.768Z,3.83
2022-10-27T04:59:45.531Z,3.63
2022-10-27T05:02:12.339Z,3.33
2022-10-27T05:04:39.048Z,3.65
2022-10-27T05:07:05.744Z,3.00
2022-10-27T05:09:32.409Z,3.25
2022-10-27T05:11:59.096Z,2.63
2022-10-27T05:14:25.776Z,2.60
2022-10-27T05:16:52.433Z,3.70
2022-10-27T05:19:19.086Z,3.17
2022-10-27T05:21:45.793Z,2.80
2022-10-27T05:24:12.492Z,2.13
2022-10-27T05:26:39.175Z,2.70
2022-10-27T05:29:05.847Z,2.33
2022-10-27T05:31:32.523Z,2.10
2022-10-27T05:36:26.808Z,2.60
2022-10-27T05:38:53.481Z,2.28
2022-10-27T05:41:20.200Z,2.00
2022-10-27T05:43:48.376Z,2.13
2022-10-27T05:46:15.153Z,2.42
2022-10-27T05:48:42.364Z,2.08
2022-10-27T05:51:09.045Z,2.28
2022-10-27T05:53:35.747Z,2.20
2022-10-27T05:56:02.448Z,2.47
2022-10-27T05:58:29.119Z,2.30
2022-10-27T06:00:55.804Z,2.42
2022-10-27T06:03:22.599Z,2.10
2022-10-27T06:05:49.363Z,2.45
2022-10-27T06:08:16.076Z,2.22
2022-10-27T06:10:42.759Z,2.13
2022-10-27T06:13:09.442Z,2.50
2022-10-27T06:15:36.189Z,2.92
2022-10-27T06:18:02.967Z,3.08
2022-10-27T06:20:29.729Z,3.35
2022-10-27T06:22:56.425Z,2.40
2022-10-27T06:25:23.184Z,2.42
2022-10-27T06:27:50.238Z,2.17
2022-10-27T06:30:17.232Z,2.03
2022-10-27T06:32:43.926Z,2.13
2022-10-27T06:35:10.644Z,2.30
2022-10-27T06:37:37.360Z,1.80
2022-10-27T06:40:04.017Z,2.28
2022-10-27T06:42:42.964Z,2.10
2022-10-27T06:45:16.247Z,2.03
2022-10-27T06:47:42.897Z,2.25
2022-10-27T06:50:09.606Z,1.90
2022-10-27T06:52:36.411Z,2.00
2022-10-27T06:55:03.113Z,2.17
2022-10-27T06:57:29.803Z,1.70
2022-10-27T06:59:56.513Z,1.90
2022-10-27T07:02:23.723Z,1.95
2022-10-27T07:04:50.685Z,2.38
2022-10-27T07:07:17.394Z,2.00
2022-10-27T07:09:44.083Z,2.10
2022-10-27T07:12:10.855Z,2.20
2022-10-27T07:14:37.614Z,2.45
2022-10-27T07:17:04.431Z,2.10
2022-10-27T07:19:31.167Z,2.38
2022-10-27T07:21:57.868Z,2.72
2022-10-27T07:24:24.630Z,3.00
2022-10-27T07:26:51.395Z,2.65
2022-10-27T07:29:18.106Z,18.65
2022-10-27T07:31:44.837Z,4.38
2022-10-27T07:34:11.570Z,2.75
2022-10-27T07:36:38.347Z,2.85
2022-10-27T07:39:04.978Z,3.05
2022-10-27T07:41:31.663Z,3.20
2022-10-27T07:43:58.307Z,2.60
2022-10-27T07:46:25.189Z,2.83
2022-10-27T07:48:51.863Z,4.57
2022-10-27T07:51:18.524Z,4.47
2022-10-27T07:53:45.202Z,2.72
2022-10-27T07:56:11.856Z,2.22
2022-10-27T07:58:38.541Z,2.53
2022-10-27T08:01:05.545Z,2.40
2022-10-27T08:03:32.358Z,2.67
2022-10-27T08:05:59.169Z,2.70
2022-10-27T08:08:25.883Z,2.70
2022-10-27T08:10:52.561Z,3.08
2022-10-27T08:13:19.309Z,2.50
2022-10-27T08:15:46.067Z,2.40
2022-10-27T08:18:12.828Z,2.72
2022-10-27T08:20:39.524Z,2.65
2022-10-27T08:23:06.217Z,2.80
2022-10-27T08:25:32.921Z,2.60
2022-10-27T08:27:59.719Z,2.97
2022-10-27T08:30:26.359Z,3.58
2022-10-27T08:32:53.222Z,3.00
2022-10-27T08:35:20.146Z,4.63
2022-10-27T08:37:46.870Z,3.20
2022-10-27T08:40:13.583Z,3.10
2022-10-27T08:42:40.237Z,3.38
2022-10-27T08:45:06.957Z,3.13
2022-10-27T08:47:33.623Z,3.10
2022-10-27T08:50:00.300Z,3.03
2022-10-27T08:52:26.982Z,3.05
2022-10-27T08:54:53.712Z,2.80
2022-10-27T08:57:20.658Z,3.08
2022-10-27T08:59:47.380Z,2.72
2022-10-27T09:02:14.123Z,3.00
2022-10-27T09:04:44.507Z,2.75
2022-10-27T09:07:11.286Z,2.80
2022-10-27T09:09:38.084Z,3.53
2022-10-27T09:12:04.772Z,5.00
2022-10-27T09:14:31.421Z,4.28
2022-10-27T09:16:58.168Z,3.30
2022-10-27T09:19:24.887Z,3.00
2022-10-27T09:21:51.622Z,3.38
2022-10-27T09:24:18.308Z,2.83
2022-10-27T09:26:45.003Z,4.30
2022-10-27T09:29:12.195Z,2.78
2022-10-27T09:31:38.878Z,3.10
2022-10-27T09:34:05.594Z,2.70
2022-10-27T09:36:32.318Z,2.80
2022-10-27T09:38:58.981Z,3.40
2022-10-27T09:41:25.669Z,3.22
2022-10-27T09:43:56.254Z,2.90
2022-10-27T09:46:25.437Z,3.83
2022-10-27T09:48:52.104Z,2.80
2022-10-27T09:51:18.865Z,2.60
2022-10-27T09:53:46.597Z,3.10
2022-10-27T09:56:15.049Z,3.05
2022-10-27T09:58:44.258Z,2.90
2022-10-27T10:01:11.102Z,3.05
2022-10-27T10:03:37.823Z,3.33
2022-10-27T10:06:04.511Z,6.05
2022-10-27T10:08:31.494Z,3.60
2022-10-27T10:10:58.302Z,3.10
2022-10-27T10:13:25.024Z,3.08
2022-10-27T10:15:51.704Z,3.08
2022-10-27T10:18:18.443Z,2.88
2022-10-27T10:20:45.119Z,2.78
2022-10-27T10:23:11.823Z,2.78
2022-10-27T10:25:38.741Z,2.80
2022-10-27T10:28:05.417Z,3.13
2022-10-27T10:30:32.108Z,3.03
2022-10-27T10:32:58.852Z,3.03
2022-10-27T10:35:25.534Z,3.10
2022-10-27T10:37:52.393Z,2.88
2022-10-27T10:40:19.348Z,2.67
2022-10-27T10:42:46.082Z,2.50
2022-10-27T10:45:12.858Z,2.65
2022-10-27T10:47:39.535Z,2.55
2022-10-27T10:50:06.220Z,2.70
2022-10-27T10:52:32.907Z,7.13
2022-10-27T10:54:59.663Z,6.93
2022-10-27T10:57:28.024Z,3.88
2022-10-27T10:59:57.295Z,2.80
2022-10-27T11:02:23.986Z,2.63
2022-10-27T11:04:50.663Z,3.17
2022-10-27T11:07:17.422Z,2.40
2022-10-27T11:09:44.141Z,2.50
2022-10-27T11:12:10.911Z,2.70
2022-10-27T11:14:37.633Z,2.75
2022-10-27T11:17:04.376Z,2.47
2022-10-27T11:19:31.062Z,2.53
2022-10-27T11:21:58.860Z,2.40
2022-10-27T11:24:25.576Z,2.88
2022-10-27T11:26:52.349Z,2.80
2022-10-27T11:29:19.034Z,3.47
2022-10-27T11:31:45.870Z,2.10
2022-10-27T11:34:12.544Z,2.20
2022-10-27T11:36:39.273Z,2.20
2022-10-27T11:39:06.016Z,2.55
2022-10-27T11:41:32.699Z,2.45
2022-10-27T11:44:04.714Z,3.55
2022-10-27T11:46:35.635Z,2.17
2022-10-27T11:49:02.385Z,2.33
2022-10-27T11:51:29.075Z,2.78
2022-10-27T11:53:56.540Z,2.30
2022-10-27T11:56:23.268Z,2.10
2022-10-27T11:58:49.915Z,2.20
2022-10-27T12:01:16.677Z,2.30
2022-10-27T12:03:46.781Z,2.33
2022-10-27T12:06:16.275Z,2.30
2022-10-27T12:08:42.970Z,2.45
2022-10-27T12:11:09.660Z,2.65
2022-10-27T12:13:36.412Z,2.65
2022-10-27T12:16:03.518Z,2.45
2022-10-27T12:18:30.295Z,2.80
2022-10-27T12:20:57.210Z,2.92
2022-10-27T12:23:23.881Z,2.38
2022-10-27T12:25:50.557Z,2.13
2022-10-27T12:28:17.286Z,2.53
2022-10-27T12:30:43.990Z,2.40
2022-10-27T12:33:10.633Z,2.53
2022-10-27T12:35:37.306Z,2.38
2022-10-27T12:38:03.986Z,2.33
2022-10-27T12:40:30.697Z,2.03
2022-10-27T12:42:57.407Z,2.00
2022-10-27T12:45:25.053Z,2.25
2022-10-27T12:47:54.112Z,2.42
2022-10-27T12:50:21.086Z,2.30
2022-10-27T12:52:48.359Z,2.13
2022-10-27T12:55:14.999Z,2.05
2022-10-27T12:57:41.677Z,1.98
2022-10-27T13:00:08.439Z,2.33
2022-10-27T13:02:35.287Z,3.38
2022-10-27T13:05:02.178Z,2.33
2022-10-27T13:07:28.883Z,2.30
2022-10-27T13:09:55.704Z,2.40
2022-10-27T13:12:22.388Z,1.80
2022-10-27T13:14:49.262Z,2.00
2022-10-27T13:17:15.967Z,2.10
2022-10-27T13:22:10.340Z,2.40
2022-10-27T13:24:37.061Z,1.80
2022-10-27T13:27:03.757Z,2.20
2022-10-27T13:29:31.130Z,1.98
2022-10-27T13:31:57.868Z,2.03
2022-10-27T13:34:24.539Z,2.20
2022-10-27T13:36:51.223Z,2.33
2022-10-27T13:39:17.883Z,2.28
2022-10-27T13:41:44.656Z,2.75
2022-10-27T13:44:11.319Z,1.88
2022-10-27T13:46:38.003Z,2.03
2022-10-27T13:49:04.697Z,2.22
2022-10-27T13:51:41.450Z,2.60
2022-10-27T13:54:15.417Z,2.40
2022-10-27T13:56:42.107Z,2.45
2022-10-27T13:59:08.727Z,2.05
2022-10-27T14:01:35.535Z,2.22
2022-10-27T14:04:02.284Z,2.15
2022-10-27T14:06:28.989Z,2.47
2022-10-27T14:08:55.659Z,2.40
2022-10-27T14:11:22.478Z,2.20
2022-10-27T14:13:49.181Z,2.58
2022-10-27T14:16:17.104Z,2.65
2022-10-27T14:18:43.862Z,2.50
2022-10-27T14:21:10.580Z,2.63
2022-10-27T14:23:37.301Z,3.28
2022-10-27T14:26:03.952Z,3.47
2022-10-27T14:28:30.627Z,3.85
2022-10-27T14:30:57.439Z,2.42
2022-10-27T14:33:24.105Z,2.25
2022-10-27T14:35:50.845Z,2.58
2022-10-27T14:38:17.529Z,2.70
2022-10-27T14:40:44.296Z,3.47
2022-10-27T14:43:10.973Z,2.65
2022-10-27T14:45:37.755Z,3.65
2022-10-27T14:48:04.531Z,4.05
2022-10-27T14:50:31.183Z,3.72
2022-10-27T14:52:57.990Z,2.92
2022-10-27T14:55:24.801Z,3.78
2022-10-27T14:57:51.929Z,3.10
2022-10-27T15:00:18.986Z,3.97
2022-10-27T15:02:45.682Z,3.17
2022-10-27T15:05:12.577Z,3.55
2022-10-27T15:07:39.353Z,3.90
2022-10-27T15:10:06.203Z,3.35
2022-10-27T15:12:33.085Z,3.38
2022-10-27T15:14:59.830Z,4.22
2022-10-27T15:17:26.557Z,4.97
2022-10-27T15:19:53.377Z,3.10
2022-10-27T15:22:20.265Z,3.42
2022-10-27T15:24:46.929Z,4.20
2022-10-27T15:27:13.671Z,4.10
2022-10-27T15:29:40.330Z,4.10
2022-10-27T15:32:07.112Z,4.13
2022-10-27T15:34:33.859Z,3.92
2022-10-27T15:37:00.589Z,3.88
2022-10-27T15:39:27.297Z,3.35
2022-10-27T15:41:55.126Z,3.15
2022-10-27T15:44:21.882Z,3.55
2022-10-27T15:46:48.602Z,2.97
2022-10-27T15:49:16.208Z,3.25
2022-10-27T15:51:42.899Z,3.58
2022-10-27T15:54:09.765Z,3.67
2022-10-27T15:56:36.498Z,3.28
2022-10-27T15:59:03.262Z,3.28
2022-10-27T16:01:30.174Z,3.55
2022-10-27T16:03:57.157Z,3.08
2022-10-27T16:06:23.921Z,3.60
2022-10-27T16:08:50.648Z,3.75
2022-10-27T16:11:17.556Z,3.15
2022-10-27T16:13:44.271Z,3.50
2022-10-27T16:16:10.980Z,2.90
2022-10-27T16:18:37.626Z,2.97
2022-10-27T16:21:04.341Z,3.10
2022-10-27T16:23:30.990Z,3.55
2022-10-27T16:25:57.710Z,3.28
2022-10-27T16:28:24.373Z,3.20
2022-10-27T16:30:51.014Z,3.33
2022-10-27T16:33:17.723Z,2.72
2022-10-27T16:35:44.455Z,3.10
2022-10-27T16:38:11.172Z,3.40
2022-10-27T16:40:38.841Z,3.30
2022-10-27T16:43:05.640Z,3.88
2022-10-27T16:45:32.305Z,3.55
2022-10-27T16:48:00.693Z,7.05
2022-10-27T16:50:27.948Z,6.35
2022-10-27T16:52:54.635Z,4.40
2022-10-27T16:55:21.806Z,3.50
2022-10-27T16:57:49.775Z,3.22
2022-10-27T17:00:16.763Z,3.30
2022-10-27T17:02:43.459Z,3.55
2022-10-27T17:05:10.226Z,3.30
2022-10-27T17:07:36.955Z,3.20
2022-10-27T17:10:03.716Z,3.55
2022-10-27T17:12:30.539Z,3.38
2022-10-27T17:14:57.201Z,3.83
2022-10-27T17:17:23.958Z,3.25
2022-10-27T17:19:50.700Z,3.90
2022-10-27T17:22:17.343Z,3.70
2022-10-27T17:24:44.382Z,3.47
2022-10-27T17:27:11.068Z,4.00
2022-10-27T17:29:37.738Z,3.92
2022-10-27T17:32:04.433Z,3.83
2022-10-27T17:34:32.157Z,4.30
2022-10-27T17:36:58.924Z,3.50
2022-10-27T17:39:25.583Z,3.85
2022-10-27T17:41:52.235Z,4.30
2022-10-27T17:44:18.953Z,4.63
2022-10-27T17:46:45.661Z,4.53
2022-10-27T17:49:12.391Z,3.92
2022-10-27T17:51:39.113Z,4.45
2022-10-27T17:54:05.855Z,3.90
2022-10-27T17:56:32.641Z,4.13
2022-10-27T17:58:59.411Z,4.30
2022-10-27T18:01:26.273Z,4.05
2022-10-27T18:03:53.060Z,5.00
2022-10-27T18:06:19.813Z,4.97
2022-10-27T18:08:51.362Z,4.05
2022-10-27T18:11:20.610Z,4.43
2022-10-27T18:13:47.279Z,4.03
2022-10-27T18:16:22.606Z,4.20
2022-10-27T18:18:49.313Z,4.18
2022-10-27T18:21:15.967Z,4.40
2022-10-27T18:23:42.667Z,4.75
2022-10-27T18:26:09.367Z,5.60
2022-10-27T18:31:07.670Z,5.60
2022-10-27T18:33:34.390Z,5.70
2022-10-27T18:36:01.099Z,6.50
2022-10-27T18:38:27.781Z,5.32
2022-10-27T18:40:54.447Z,5.75
2022-10-27T18:43:21.151Z,6.53
2022-10-27T18:45:47.827Z,5.43
2022-10-27T18:48:14.520Z,4.53
2022-10-27T18:50:41.268Z,5.05
2022-10-27T18:53:08.009Z,5.32
2022-10-27T18:55:36.550Z,5.50
2022-10-27T18:58:04.153Z,5.13
2022-10-27T19:00:30.841Z,5.28
2022-10-27T19:02:57.557Z,5.10
2022-10-27T19:05:24.280Z,5.15
2022-10-27T19:07:50.979Z,4.22
2022-10-27T19:10:17.685Z,5.18
2022-10-27T19:12:44.400Z,5.30
2022-10-27T19:15:11.064Z,4.68
2022-10-27T19:17:37.789Z,5.28
2022-10-27T19:20:04.490Z,5.75
2022-10-27T19:22:31.179Z,5.30
2022-10-27T19:24:57.873Z,4.95
2022-10-27T19:27:24.583Z,5.40
2022-10-27T19:29:51.303Z,5.20
2022-10-27T19:32:17.999Z,5.03
2022-10-27T19:34:47.612Z,5.25
2022-10-27T19:37:16.754Z,5.93
2022-10-27T19:39:43.566Z,5.50
2022-10-27T19:42:10.582Z,5.50
2022-10-27T19:44:37.349Z,4.85
2022-10-27T19:47:04.079Z,5.15
2022-10-27T19:49:30.948Z,4.95
2022-10-27T19:51:57.696Z,5.20
2022-10-27T19:54:24.701Z,5.18
2022-10-27T19:56:51.646Z,5.28
2022-10-27T19:59:20.621Z,5.13
2022-10-27T20:01:50.518Z,4.90
2022-10-27T20:04:19.117Z,5.82
2022-10-27T20:06:46.610Z,5.72
2022-10-27T20:09:13.644Z,5.57
2022-10-27T20:11:40.569Z,5.90
2022-10-27T20:14:07.407Z,5.72
2022-10-27T20:16:34.323Z,7.07
2022-10-27T20:19:01.004Z,7.40
2022-10-27T20:21:27.912Z,7.30
2022-10-27T20:23:54.923Z,6.82
2022-10-27T20:26:28.981Z,7.30
2022-10-27T20:28:56.573Z,7.72
2022-10-27T20:31:23.261Z,7.32
2022-10-27T20:33:49.936Z,5.88
2022-10-27T20:36:16.689Z,6.15
2022-10-27T20:38:43.578Z,6.70
2022-10-27T20:41:10.260Z,7.22
2022-10-27T20:43:36.971Z,8.07
2022-10-27T20:46:03.719Z,7.40
2022-10-27T20:48:30.414Z,8.95
2022-10-27T20:50:57.118Z,9.18
2022-10-27T20:53:23.771Z,7.78
2022-10-27T20:55:50.499Z,7.60
2022-10-27T20:58:17.214Z,8.93
2022-10-27T21:00:43.970Z,8.45
2022-10-27T21:03:10.767Z,8.60
2022-10-27T21:05:37.425Z,8.32
2022-10-27T21:08:04.128Z,8.20
2022-10-27T21:10:30.824Z,8.60
2022-10-27T21:12:57.529Z,8.00
2022-10-27T21:15:24.752Z,7.85
2022-10-27T21:17:52.224Z,8.23
2022-10-27T21:20:19.181Z,8.30
2022-10-27T21:22:45.847Z,7.95
2022-10-27T21:25:12.539Z,8.52
2022-10-27T21:27:39.224Z,7.32
2022-10-27T21:30:05.962Z,7.40
2022-10-27T21:32:32.684Z,6.60
2022-10-27T21:34:59.353Z,6.90
2022-10-27T21:37:26.110Z,7.20
2022-10-27T21:39:54.134Z,6.45
2022-10-27T21:42:20.793Z,7.15
2022-10-27T21:44:48.344Z,7.63
2022-10-27T21:47:15.113Z,6.60
2022-10-27T21:49:41.814Z,7.13
2022-10-27T21:52:08.468Z,6.70
2022-10-27T21:54:35.146Z,8.05
2022-10-27T21:57:01.843Z,8.00
2022-10-27T21:59:28.532Z,26.40
2022-10-27T22:01:55.320Z,8.40
2022-10-27T22:04:24.714Z,8.32
2022-10-27T22:06:53.775Z,7.53
2022-10-27T22:11:47.542Z,7.15
2022-10-27T22:14:14.255Z,7.32
2022-10-27T22:16:41.069Z,7.00
2022-10-27T22:19:07.799Z,7.97
2022-10-27T22:21:34.607Z,6.80
2022-10-27T22:24:01.427Z,7.72
2022-10-27T22:26:30.030Z,6.20
2022-10-27T22:28:56.922Z,6.43
2022-10-27T22:31:23.745Z,6.20
2022-10-27T22:33:50.447Z,6.05
2022-10-27T22:36:17.235Z,6.35
2022-10-27T22:38:44.062Z,6.68
2022-10-27T22:41:10.861Z,6.15
2022-10-27T22:43:37.629Z,6.22
2022-10-27T22:46:04.481Z,7.13
2022-10-27T22:48:33.363Z,6.35
2022-10-27T22:51:00.541Z,6.50
2022-10-27T22:53:32.103Z,6.68
2022-10-27T22:55:58.958Z,6.75
2022-10-27T22:58:26.130Z,6.07
2022-10-27T23:00:52.957Z,6.40
2022-10-27T23:03:19.722Z,6.57
2022-10-27T23:05:46.521Z,6.35
2022-10-27T23:08:13.213Z,6.65
2022-10-27T23:10:39.923Z,6.47
2022-10-27T23:13:06.636Z,6.35
2022-10-27T23:15:33.326Z,5.78
2022-10-27T23:18:00.011Z,6.05
2022-10-27T23:20:26.706Z,5.80
2022-10-27T23:22:53.647Z,6.28
2022-10-27T23:25:20.587Z,6.25
2022-10-27T23:27:47.322Z,6.57
2022-10-27T23:30:14.172Z,6.63
2022-10-27T23:32:41.733Z,6.75
2022-10-27T23:35:08.640Z,6.43
2022-10-27T23:37:35.368Z,6.55
2022-10-27T23:40:02.075Z,6.55
2022-10-27T23:42:28.709Z,6.40
2022-10-27T23:44:55.400Z,6.18
2022-10-27T23:47:22.097Z,7.13
2022-10-27T23:49:48.766Z,7.13
2022-10-27T23:52:15.536Z,7.10
2022-10-27T23:54:44.558Z,7.43
2022-10-27T23:57:12.184Z,6.72
2022-10-27T23:59:39.149Z,6.38
